Date,TemperatureHighF,TemperatureAvgF,TemperatureLowF,DewpointHighF,DewpointAvgF,DewpointLowF,HumidityHigh,HumidityAvg,HumidityLow,PressureMaxIn,PressureMinIn,WindSpeedMaxMPH,WindSpeedAvgMPH,GustSpeedMaxMPH,PrecipitationSumIn
2014-1-1,50,38,28,28,23,17,70,55,41,30.42,30.13,4,1,7,0.00
2014-1-2,37,33,30,32,28,24,96,81,65,30.13,29.63,3,0,5,0.08
2014-1-3,32,23,17,31,10,3,96,57,39,30.52,29.67,12,0,24,0.00
2014-1-4,36,25,15,20,12,5,70,58,46,30.55,30.30,5,2,10,0.01
2014-1-5,38,33,31,37,29,19,100,86,62,30.31,29.72,7,1,10,0.67
2014-1-6,45,33,9,43,22,-7,98,67,41,30.12,29.57,13,6,22,0.02
2014-1-7,21,12,4,-2,-6,-10,60,44,31,30.50,30.12,8,-8,15,0.00
2014-1-8,36,24,12,14,4,-100,68,43,33,30.64,30.49,5,-20,8,0.00
2014-1-9,44,33,25,23,17,11,66,53,42,30.66,30.49,4,0,5,0.00
2014-1-10,36,33,31,34,30,22,97,88,65,30.56,30.16,2,0,3,0.72
2014-1-11,51,43,35,50,42,34,98,96,71,30.16,29.49,10,3,15,0.68
2014-1-12,55,46,39,39,32,29,72,58,43,30.13,29.61,13,3,19,0.01
2014-1-13,57,46,35,41,35,29,84,66,51,30.11,29.90,8,3,15,0.00
2014-1-14,50,45,42,48,42,34,97,87,68,29.94,29.72,9,1,14,0.11
2014-1-15,57,42,33,41,34,30,92,75,50,29.97,29.84,7,1,12,0.00
2014-1-16,43,34,28,31,24,17,95,70,44,30.04,29.89,5,1,7,0.01
2014-1-17,51,37,27,32,24,17,80,59,40,29.99,29.85,8,1,14,0.00
2014-1-18,37,29,25,32,15,9,83,56,40,30.01,29.83,10,-1,15,0.00
2014-1-19,48,35,24,29,22,15,72,59,43,29.98,29.81,12,2,18,0.00
2014-1-20,60,44,33,30,26,24,76,51,29,29.86,29.68,11,3,19,0.00
2014-1-21,38,29,20,29,25,16,93,84,66,29.88,29.67,8,2,20,0.11
2014-1-22,24,17,10,16,2,-4,83,54,30,30.12,29.88,10,-5,18,0.00
2014-1-23,29,18,11,12,2,-5,64,50,35,30.50,30.12,10,-1,21,0.00
2014-1-24,28,16,7,5,-2,-6,61,46,30,30.60,30.14,9,-1,18,0.00
2014-1-25,33,24,16,25,12,3,90,58,44,30.13,29.54,14,5,23,0.00
2014-1-26,35,28,19,20,8,0,56,43,32,29.94,29.71,12,-2,24,0.00
2014-1-27,54,38,23,37,21,-3,71,50,28,30.18,29.72,12,4,20,0.00
2014-1-28,23,18,12,8,-1,-8,84,45,29,30.42,30.18,6,-2,10,0.01
2014-1-29,27,18,9,9,4,-3,89,59,32,30.39,30.24,6,-3,10,0.00
2014-1-30,34,23,12,9,4,-3,61,44,31,30.50,30.23,5,-3,7,0.00
2014-1-31,55,37,22,18,11,6,53,36,16,30.24,30.13,7,1,11,0.00
2014-2-1,57,43,30,24,20,14,60,41,26,30.30,30.02,5,1,7,0.00
2014-2-2,67,53,40,49,36,24,68,53,40,30.04,29.93,8,2,14,0.00
2014-2-3,54,40,34,43,36,32,96,88,59,30.35,29.96,9,2,20,1.41
2014-2-4,36,33,31,32,29,28,95,85,76,30.50,30.16,4,0,10,0.04
2014-2-5,53,37,31,45,32,22,97,83,57,30.17,29.73,12,2,22,0.12
2014-2-6,41,34,29,23,21,18,69,58,46,30.35,30.09,9,1,16,0.00
2014-2-7,45,34,26,25,22,19,76,61,42,30.38,30.26,4,0,7,0.00
2014-2-8,36,31,28,25,21,16,79,67,58,30.35,30.19,4,0,6,0.00
2014-2-9,40,33,29,32,27,23,83,77,62,30.22,30.00,7,1,13,0.00
2014-2-10,38,31,24,26,22,14,84,69,60,30.34,30.06,4,0,9,0.00
2014-2-11,34,26,18,16,13,10,74,59,42,30.49,30.32,5,-6,9,0.00
2014-2-12,24,20,17,20,12,9,93,71,57,30.54,30.10,8,-2,13,0.24
2014-2-13,34,30,22,33,28,20,97,95,86,30.10,29.44,14,0,23,1.06
2014-2-14,55,43,34,31,25,20,88,52,28,29.74,29.53,14,5,23,0.00
2014-2-15,42,34,27,35,26,14,96,73,47,30.01,29.61,15,3,21,0.15
2014-2-16,47,34,26,28,20,14,66,56,33,30.22,29.98,9,2,20,0.00
2014-2-17,43,32,25,24,18,14,78,55,34,30.45,30.21,6,-3,13,0.00
2014-2-18,57,42,27,29,24,18,86,54,24,30.23,30.06,12,3,18,0.00
2014-2-19,64,50,40,48,33,22,85,52,32,30.11,29.77,12,3,19,0.00
2014-2-20,54,47,40,32,27,21,60,46,33,30.27,29.95,3,0,6,0.00
2014-2-21,60,51,44,57,35,21,96,58,28,30.00,29.70,14,4,21,0.16
2014-2-22,64,52,42,28,24,19,49,34,19,30.15,30.01,9,2,14,0.00
2014-2-23,71,53,40,34,30,26,60,43,21,30.06,29.84,12,2,18,0.00
2014-2-24,53,44,34,34,18,4,64,38,16,30.15,29.91,14,3,21,0.00
2014-2-25,46,35,30,26,17,8,81,50,35,30.13,29.97,8,1,14,0.00
2014-2-26,43,34,25,28,18,6,83,55,27,30.03,29.83,8,1,13,0.00
2014-2-27,48,32,21,13,8,2,65,39,19,30.10,29.69,12,2,23,0.00
2014-2-28,34,24,12,9,6,1,63,46,32,30.42,30.10,6,-2,14,0.00
2014-3-1,51,35,19,26,16,6,65,47,29,30.40,30.21,4,-3,9,0.00
2014-3-2,67,47,37,50,35,24,99,67,40,30.21,29.94,7,2,11,0.12
2014-3-3,37,24,13,36,22,10,95,92,88,30.37,29.94,8,-6,15,0.74
2014-3-4,34,22,11,16,11,7,88,66,41,30.47,30.26,3,-7,6,0.00
2014-3-5,48,33,19,23,17,9,78,53,33,30.40,30.21,5,-6,9,0.00
2014-3-6,37,30,24,24,18,13,76,61,47,30.55,30.35,7,2,13,0.00
2014-3-7,42,33,27,32,27,20,91,78,65,30.35,29.98,8,3,14,0.03
2014-3-8,67,50,33,43,34,28,84,57,33,30.02,29.90,8,2,16,0.00
2014-3-9,62,53,48,39,33,24,62,48,32,30.06,29.92,6,2,12,0.00
2014-3-10,66,54,40,35,30,27,62,41,27,30.01,29.70,8,2,17,0.00
2014-3-11,77,66,58,44,38,32,47,36,28,29.75,29.60,9,3,17,0.00
2014-3-12,64,55,35,59,41,21,93,61,35,29.63,29.09,19,5,28,0.09
2014-3-13,38,31,23,21,7,-2,60,37,20,30.23,29.56,15,5,27,0.00
2014-3-14,62,44,27,26,17,6,54,36,23,30.27,29.94,10,4,21,0.00
2014-3-15,69,56,44,36,28,23,51,36,22,30.05,29.86,10,4,19,0.00
2014-3-16,53,40,29,32,28,24,100,65,32,30.15,30.02,7,2,13,0.31
2014-3-17,29,27,24,27,25,22,95,92,88,30.11,29.97,8,2,17,0.28
2014-3-18,42,33,26,31,27,24,95,81,62,30.26,30.08,7,2,13,0.00
2014-3-19,42,37,32,41,34,28,97,88,72,30.24,29.89,4,0,6,0.04
2014-3-20,62,51,41,42,31,22,97,51,24,30.03,29.87,11,-4,22,0.00
2014-3-21,71,54,43,38,31,23,68,42,25,30.08,29.95,10,2,14,0.00
2014-3-22,75,57,43,41,32,21,78,45,18,30.02,29.84,10,2,15,0.00
2014-3-23,56,43,36,36,31,22,80,62,27,30.18,29.98,6,1,14,0.00
2014-3-24,47,35,25,22,14,10,61,43,24,30.33,30.11,8,2,13,0.00
2014-3-25,35,30,27,30,24,13,94,79,43,30.15,29.85,3,0,5,0.34
2014-3-26,40,31,23,26,16,11,91,55,33,30.35,29.95,9,-5,17,0.00
2014-3-27,53,39,25,28,20,11,64,47,34,30.48,30.23,9,2,15,0.00
2014-3-28,66,53,44,54,44,24,94,72,43,30.23,30.04,13,0,23,0.01
2014-3-29,59,55,52,58,54,51,98,96,86,30.11,29.54,7,1,12,0.78
2014-3-30,52,45,37,51,38,27,98,78,47,29.90,29.51,15,2,26,0.26
2014-3-31,69,55,42,32,27,24,50,36,22,30.10,29.89,11,4,19,0.00
2014-4-1,73,59,45,42,34,27,55,40,30,30.18,29.95,6,1,10,0.00
2014-4-2,79,66,57,46,41,37,55,41,27,30.08,29.97,6,1,11,0.00
2014-4-3,70,60,52,53,49,43,90,68,49,30.15,29.90,6,0,9,0.06
2014-4-4,67,58,50,55,50,43,84,74,64,29.91,29.68,7,1,12,0.00
2014-4-5,64,56,46,50,35,28,64,46,31,30.14,29.72,9,4,17,0.00
2014-4-6,63,50,37,32,28,25,72,45,25,30.27,30.14,5,-2,10,0.00
2014-4-7,50,43,38,44,39,31,97,87,49,30.16,29.65,5,0,14,0.82
2014-4-8,67,55,44,52,44,38,98,70,39,29.73,29.51,12,3,21,0.00
2014-4-9,68,56,48,39,36,32,64,49,31,30.08,29.69,9,2,17,0.00
2014-4-10,74,60,47,40,35,31,63,41,24,30.23,30.05,10,2,16,0.00
2014-4-11,84,68,54,51,42,36,61,41,23,30.10,29.92,9,3,13,0.00
2014-4-12,79,68,56,54,51,46,80,56,35,30.24,30.04,6,1,12,0.00
2014-4-13,85,70,55,58,54,51,86,62,38,30.15,29.99,8,3,14,0.00
2014-4-14,75,68,60,60,56,54,84,69,55,30.00,29.78,11,4,18,0.00
2014-4-15,66,55,36,64,52,26,97,89,66,30.03,29.54,11,4,19,1.59
2014-4-16,52,40,30,27,22,18,68,49,30,30.54,30.04,10,2,17,0.00
2014-4-17,60,46,33,35,28,20,69,52,33,30.64,30.49,5,1,12,0.00
2014-4-18,60,48,38,42,38,34,86,70,48,30.56,30.28,4,0,9,0.00
2014-4-19,65,55,44,45,41,38,84,62,44,30.30,30.22,8,1,17,0.00
2014-4-20,67,56,46,42,36,32,62,48,34,30.40,30.27,7,2,15,0.00
2014-4-21,75,57,41,39,33,24,75,44,18,30.28,29.90,5,0,10,0.00
2014-4-22,78,66,56,54,44,31,63,46,33,29.90,29.59,7,1,12,0.00
2014-4-23,66,58,50,50,36,31,67,46,32,30.02,29.65,9,2,19,0.00
2014-4-24,69,55,43,32,28,21,60,37,17,30.15,29.99,5,0,10,0.00
2014-4-25,59,54,49,56,42,28,97,68,33,30.02,29.71,6,0,12,0.37
2014-4-26,79,64,49,52,44,37,87,51,33,29.93,29.78,9,2,18,0.00
2014-4-27,69,58,51,49,44,37,69,59,46,30.05,29.88,4,1,8,0.00
2014-4-28,63,54,50,50,44,39,96,71,48,30.09,29.97,3,0,7,0.22
2014-4-29,50,48,47,49,47,46,98,97,96,30.17,30.02,6,1,13,0.94
2014-4-30,57,53,48,57,52,48,98,98,97,30.15,29.86,4,0,10,1.77
2014-5-1,80,67,57,61,55,41,99,70,38,29.88,29.71,5,1,11,0.00
2014-5-2,72,62,52,46,42,37,61,48,34,29.89,29.79,6,1,14,0.00
2014-5-3,76,63,52,49,43,40,66,49,31,29.90,29.77,4,0,10,0.00
2014-5-4,82,68,55,50,44,38,58,44,29,29.92,29.73,11,2,31,0.00
2014-5-5,64,56,49,53,45,37,93,68,43,30.04,29.90,4,-3,11,0.04
2014-5-6,77,62,49,59,53,48,95,75,48,30.04,29.90,6,0,8,0.00
2014-5-7,78,68,59,62,56,51,91,69,40,30.18,30.04,3,0,6,0.03
2014-5-8,92,75,61,68,59,54,88,61,31,30.14,29.99,4,1,11,0.00
2014-5-9,88,75,62,69,61,53,87,63,37,30.08,29.92,10,1,15,0.01
2014-5-10,72,67,63,68,63,60,93,85,74,30.04,29.94,8,1,14,0.30
2014-5-11,84,71,60,64,59,56,92,69,43,30.15,29.99,3,0,6,0.00
2014-5-12,88,75,64,72,66,58,88,73,53,30.15,30.08,10,0,19,0.30
2014-5-13,94,78,66,74,67,63,92,71,45,30.14,30.03,6,0,13,0.00
2014-5-14,69,66,63,65,63,62,97,92,84,30.19,30.10,3,0,7,0.00
2014-5-15,82,67,63,70,65,62,98,93,66,30.13,29.81,11,0,20,2.10
2014-5-16,73,63,54,66,54,45,98,76,48,29.96,29.77,6,1,14,1.60
2014-5-17,70,58,47,47,43,38,82,58,34,30.17,29.96,5,0,12,0.00
2014-5-18,70,59,49,46,40,37,70,52,33,30.26,30.17,4,0,7,0.00
2014-5-19,74,60,47,47,42,38,77,54,31,30.33,30.20,5,0,7,0.00
2014-5-20,81,67,55,58,51,43,75,58,39,30.23,30.00,2,0,5,0.00
2014-5-21,86,74,62,68,62,56,84,69,47,30.01,29.87,4,0,9,0.00
2014-5-22,88,76,65,71,63,54,94,67,40,29.90,29.80,6,0,14,0.00
2014-5-23,84,71,62,59,52,45,68,52,33,30.04,29.88,4,0,17,0.00
2014-5-24,78,66,55,56,50,45,76,58,40,30.14,30.03,4,0,11,0.00
2014-5-25,84,71,59,61,55,49,76,58,37,30.19,30.09,3,0,7,0.00
2014-5-26,89,75,62,68,61,56,84,64,42,30.15,29.98,3,0,6,0.00
2014-5-27,92,76,69,72,65,58,89,71,48,30.01,29.88,4,0,7,0.01
2014-5-28,91,76,66,73,67,62,95,75,49,30.00,29.87,7,0,15,0.21
2014-5-29,66,62,59,65,60,58,97,95,90,30.16,29.99,5,0,11,0.07
2014-5-30,67,62,59,62,60,58,98,93,84,30.16,30.08,4,0,7,0.00
2014-5-31,80,68,58,60,55,49,97,68,41,30.26,30.12,6,0,10,0.00
2014-6-1,78,66,55,60,55,50,89,68,46,30.36,30.24,3,0,6,0.00
2014-6-2,83,69,55,65,58,49,84,68,49,30.28,30.07,2,-6,6,0.00
2014-6-3,85,74,63,72,65,59,86,75,60,30.08,29.87,2,0,5,0.00
2014-6-4,90,76,66,71,66,61,96,72,40,29.90,29.70,6,0,14,0.39
2014-6-5,81,72,66,70,63,54,97,75,49,29.88,29.60,4,0,12,0.00
2014-6-6,83,71,60,61,56,52,79,59,38,30.00,29.87,4,0,6,0.00
2014-6-7,85,72,60,64,59,54,83,64,43,30.07,29.94,3,0,5,0.00
2014-6-8,85,74,64,71,65,59,87,75,60,29.98,29.81,4,0,14,0.00
2014-6-9,89,77,67,72,68,65,94,76,54,29.90,29.82,2,0,9,0.00
2014-6-10,91,78,69,73,70,67,94,78,50,29.93,29.84,7,0,12,0.00
2014-6-11,88,74,66,75,69,65,97,85,61,29.98,29.84,7,-3,13,0.84
2014-6-12,84,72,66,74,68,65,98,91,66,29.95,29.81,2,0,9,0.05
2014-6-13,84,72,64,74,68,62,98,87,66,29.88,29.75,6,0,16,0.84
2014-6-14,83,71,62,63,59,53,97,70,37,30.11,29.88,3,0,7,0.00
2014-6-15,82,70,56,68,61,54,92,72,56,30.22,30.09,3,0,12,0.00
2014-6-16,93,80,68,75,69,64,88,71,47,30.15,30.04,2,0,7,0.00
2014-6-17,94,82,70,76,71,67,92,71,48,30.12,29.99,3,0,5,0.00
2014-6-18,97,85,76,77,71,65,78,64,42,30.03,29.96,2,0,6,0.00
2014-6-19,93,82,70,76,70,63,93,69,51,30.03,29.90,4,0,10,0.04
2014-6-20,84,74,67,71,68,66,97,82,58,30.06,29.92,4,0,7,0.24
2014-6-21,81,71,66,73,68,64,97,91,75,29.93,29.83,4,0,9,0.83
2014-6-22,79,69,63,69,65,62,97,87,67,30.02,29.87,3,0,7,0.16
2014-6-23,83,73,64,70,65,62,96,78,55,30.12,30.01,2,0,5,0.00
2014-6-24,85,74,63,75,68,61,93,80,66,30.15,29.99,3,0,10,0.00
2014-6-25,89,77,68,78,72,66,95,84,62,30.00,29.82,5,0,11,0.06
2014-6-26,89,77,70,74,69,65,93,77,52,30.00,29.87,4,0,7,0.00
2014-6-27,87,77,68,72,68,65,95,76,52,30.15,30.00,4,-3,11,0.00
2014-6-28,86,75,68,72,68,61,92,78,58,30.26,30.14,5,0,9,0.00
2014-6-29,85,74,65,67,62,57,82,67,43,30.26,30.11,2,0,5,0.00
2014-6-30,88,77,65,74,67,59,87,73,60,30.12,29.94,3,0,6,0.00
2014-7-1,94,81,70,78,73,68,91,76,58,29.97,29.83,4,0,7,0.00
2014-7-2,95,83,73,81,74,69,94,77,55,29.95,29.83,6,0,13,0.01
2014-7-3,90,76,70,79,71,67,96,87,67,29.98,29.90,4,0,13,0.21
2014-7-4,81,73,64,69,60,51,96,65,40,30.21,29.94,5,1,15,0.00
2014-7-5,82,70,58,58,52,49,74,55,35,30.31,30.18,3,0,8,0.00
2014-7-6,90,74,61,67,60,51,80,61,43,30.18,29.96,4,-3,10,0.00
2014-7-7,93,79,65,72,66,61,87,65,45,29.97,29.84,5,1,12,0.00
2014-7-8,94,82,70,74,68,64,92,67,46,29.90,29.75,14,1,21,0.17
2014-7-9,89,72,68,77,69,67,95,90,63,29.97,29.83,6,0,10,0.01
2014-7-10,84,75,67,72,69,66,97,83,60,30.12,29.96,3,0,5,0.00
2014-7-11,87,75,65,71,67,64,97,78,56,30.20,30.10,4,0,9,0.00
2014-7-12,92,79,69,74,70,67,93,73,52,30.20,30.08,3,0,12,0.00
2014-7-13,93,80,71,76,71,67,89,74,51,30.10,29.92,5,1,10,0.00
2014-7-14,97,81,72,78,73,70,94,78,49,29.93,29.79,5,0,10,0.03
2014-7-15,88,78,70,76,71,67,97,81,57,29.84,29.71,3,0,11,0.13
2014-7-16,84,74,67,69,61,56,92,66,41,29.95,29.77,3,0,10,0.00
2014-7-17,86,74,64,61,57,53,80,57,34,30.12,29.94,5,0,7,0.00
2014-7-18,86,73,62,64,61,58,88,68,45,30.22,30.12,3,0,7,0.00
2014-7-19,83,71,65,67,63,59,96,77,49,30.20,30.10,3,0,9,0.01
2014-7-20,80,71,61,68,64,58,91,78,62,30.14,30.07,3,0,7,0.00
2014-7-21,83,74,68,73,70,66,94,86,71,30.17,30.09,2,0,6,0.00
2014-7-22,90,79,71,74,71,69,96,80,57,30.18,30.05,3,0,7,0.00
2014-7-23,98,81,70,78,72,68,95,77,46,30.07,29.82,5,0,13,0.45
2014-7-24,81,71,66,74,68,65,97,93,78,29.97,29.83,4,0,10,0.85
2014-7-25,84,72,62,69,64,60,98,79,55,30.09,29.96,3,0,6,0.00
2014-7-26,89,77,67,73,68,64,93,75,55,30.01,29.88,2,0,6,0.00
2014-7-27,83,75,68,75,70,66,96,86,73,29.91,29.67,4,0,12,0.08
2014-7-28,82,75,66,72,63,58,96,69,50,29.86,29.60,6,1,18,0.00
2014-7-29,78,68,60,61,56,52,82,67,48,30.03,29.85,4,0,10,0.00
2014-7-30,82,69,59,62,57,53,85,68,45,30.09,30.02,2,0,6,0.00
2014-7-31,87,73,63,68,63,58,88,72,46,30.13,30.06,3,0,9,0.00
2014-8-1,75,70,63,69,66,61,95,88,76,30.19,30.11,2,0,6,0.07
2014-8-2,75,68,62,68,64,60,95,87,74,30.16,30.07,2,0,5,0.00
2014-8-3,85,74,66,71,67,64,96,80,57,30.09,30.00,4,0,10,0.00
2014-8-4,88,75,64,69,66,63,96,75,46,30.11,30.03,3,0,5,0.00
2014-8-5,91,76,66,70,66,62,93,74,42,30.07,29.94,2,0,5,0.00
2014-8-6,85,74,66,70,66,63,92,78,55,29.96,29.89,3,0,7,0.00
2014-8-7,86,74,65,69,64,59,94,72,46,30.06,29.93,5,0,10,0.00
2014-8-8,84,73,64,67,63,58,86,73,48,30.13,30.05,2,0,5,0.00
2014-8-9,80,71,65,69,66,62,94,83,66,30.13,30.07,0,0,0,0.00
2014-8-10,86,72,62,69,65,61,96,81,56,30.15,30.07,0,0,2,0.00
2014-8-11,75,68,65,67,64,60,96,85,72,30.11,30.00,0,0,0,0.08
2014-8-12,69,67,66,68,66,64,98,97,96,30.00,29.88,0,0,1,0.59
2014-8-13,83,69,63,71,64,55,96,86,53,29.95,29.76,4,0,13,0.00
2014-8-14,85,71,60,66,58,54,84,66,47,29.98,29.87,4,0,11,0.00
2014-8-15,83,71,58,66,59,53,87,68,50,30.03,29.92,5,0,10,0.00
2014-8-16,84,72,60,64,59,53,84,66,44,30.04,29.94,4,0,9,0.00
2014-8-17,82,75,69,72,66,58,88,73,60,29.97,29.90,2,0,7,0.00
2014-8-18,78,73,69,73,68,64,93,84,75,29.92,29.78,1,0,5,0.00
2014-8-19,85,74,69,73,70,67,97,87,66,29.91,29.78,3,0,7,0.00
2014-8-20,87,76,68,76,71,66,96,85,67,30.02,29.89,8,0,13,0.81
2014-8-21,88,75,66,77,70,65,98,88,60,30.06,29.96,1,0,3,0.00
2014-8-22,83,75,70,74,70,67,93,86,70,30.00,29.93,2,0,9,0.00
2014-8-23,77,71,66,74,69,65,98,95,88,30.06,29.94,5,0,14,0.66
2014-8-24,75,68,64,67,64,62,98,89,68,30.15,30.05,5,0,13,0.03
2014-8-25,79,69,59,65,61,58,97,78,53,30.19,30.12,6,0,12,0.00
2014-8-26,84,71,60,68,62,57,93,75,51,30.19,30.09,3,0,9,0.00
2014-8-27,88,74,62,71,65,59,90,74,48,30.10,29.93,2,0,5,0.00
2014-8-28,90,79,71,73,68,59,85,69,49,30.07,29.91,5,0,13,0.00
2014-8-29,82,71,61,65,60,54,84,69,50,30.20,30.06,3,0,9,0.00
2014-8-30,86,75,67,76,69,63,91,84,70,30.22,30.08,1,0,4,0.00
2014-8-31,92,79,71,78,73,70,97,82,59,30.12,29.98,4,0,12,0.00
2014-9-1,93,81,71,78,72,69,97,77,53,30.03,29.93,5,0,10,0.21
2014-9-2,96,83,73,76,71,67,92,70,46,29.99,29.84,3,0,9,0.04
2014-9-3,88,77,69,75,70,66,95,81,54,30.12,29.88,2,0,7,0.08
2014-9-4,88,77,70,79,72,69,97,88,70,30.16,30.06,2,0,4,0.93
2014-9-5,91,74,69,78,70,68,98,89,57,30.16,30.02,3,0,6,0.00
2014-9-6,93,80,70,77,72,69,96,79,52,30.04,29.86,3,0,9,0.00
2014-9-7,78,71,65,70,62,55,91,74,57,30.17,29.93,5,0,13,0.00
2014-9-8,71,65,61,66,60,55,93,84,71,30.22,30.14,5,0,10,0.03
2014-9-9,74,67,62,68,64,59,96,89,80,30.19,30.09,1,0,7,0.00
2014-9-10,81,72,66,71,67,64,96,86,67,30.13,29.98,2,0,7,0.00
2014-9-11,90,76,66,75,70,65,97,83,57,30.00,29.87,3,0,6,0.00
2014-9-12,77,70,63,70,62,58,88,78,62,30.14,29.96,4,0,10,0.00
2014-9-13,75,65,61,68,60,53,93,84,71,30.23,30.08,2,0,7,0.02
2014-9-14,69,61,52,57,53,48,92,76,56,30.33,30.21,3,0,7,0.00
2014-9-15,77,65,54,62,58,53,96,81,57,30.25,30.02,2,0,5,0.00
2014-9-16,81,70,62,65,61,55,97,75,53,30.03,29.97,3,0,9,0.00
2014-9-17,77,65,56,58,55,52,87,72,48,30.06,29.94,2,0,6,0.00
2014-9-18,77,65,56,65,60,54,92,83,63,30.09,29.95,2,0,5,0.00
2014-9-19,70,64,60,62,59,56,93,86,72,30.27,30.09,4,0,9,0.00
2014-9-20,83,69,60,64,60,58,96,76,46,30.27,30.02,2,0,4,0.00
2014-9-21,90,73,59,68,62,55,95,72,46,30.05,29.66,3,0,10,0.00
2014-9-22,76,66,57,55,50,47,76,57,41,30.21,29.79,5,0,12,0.00
2014-9-23,68,58,48,50,46,44,86,67,46,30.38,30.19,4,0,7,0.00
2014-9-24,63,57,50,58,53,47,97,86,75,30.46,30.34,4,0,14,0.43
2014-9-25,69,63,58,65,61,58,98,93,86,30.35,30.21,4,0,12,0.01
2014-9-26,78,66,59,64,60,55,97,80,54,30.26,30.17,3,0,11,0.01
2014-9-27,80,66,56,62,56,53,93,72,40,30.26,30.18,4,0,10,0.00
2014-9-28,80,67,57,64,58,54,91,75,52,30.22,30.06,1,0,4,0.00
2014-9-29,71,65,61,67,62,58,97,92,85,30.06,29.94,0,0,2,0.02
2014-9-30,77,65,62,68,62,61,98,92,71,29.94,29.87,2,0,5,0.00
2014-10-1,75,66,62,66,63,61,97,89,70,30.07,29.93,2,0,4,0.00
2014-10-2,79,68,61,67,63,60,98,87,64,30.13,30.04,2,0,5,0.13
2014-10-3,72,65,61,69,63,60,98,94,87,30.10,29.69,2,0,4,0.56
2014-10-4,66,59,46,64,48,30,98,69,37,29.85,29.62,7,1,13,0.00
2014-10-5,65,52,42,44,39,33,81,62,40,29.98,29.82,3,0,10,0.00
2014-10-6,74,58,43,56,48,40,91,71,49,30.03,29.93,6,1,11,0.00
2014-10-7,70,59,54,61,56,52,97,90,69,30.07,29.90,7,1,14,0.87
2014-10-8,77,64,56,63,54,47,98,74,39,30.05,29.89,4,1,16,0.05
2014-10-9,76,64,55,56,50,44,80,62,45,30.16,30.04,3,0,6,0.00
2014-10-10,64,58,55,56,54,46,100,88,53,30.13,30.03,2,0,4,0.05
2014-10-11,59,55,53,56,53,52,97,95,89,30.17,29.97,3,0,10,0.09
2014-10-12,55,53,51,53,51,49,97,94,87,30.30,30.17,4,0,9,0.03
2014-10-13,61,57,52,60,56,52,100,97,95,30.30,30.19,0,0,1,0.02
2014-10-14,73,67,59,70,66,58,99,97,91,30.18,29.90,5,0,13,0.20
2014-10-15,70,63,55,69,62,54,98,96,93,29.90,29.76,6,0,17,1.71
2014-10-16,70,59,53,62,55,52,99,90,69,29.79,29.71,2,0,5,0.00
2014-10-17,73,62,54,58,54,50,89,76,53,29.86,29.70,4,1,13,0.00
2014-10-18,69,62,51,55,49,40,92,64,48,29.92,29.66,5,1,15,0.00
2014-10-19,64,54,47,42,38,33,77,58,35,30.12,29.90,3,0,11,0.00
2014-10-20,69,54,41,53,44,35,85,71,53,30.12,29.93,4,0,13,0.00